Flight Track Log - Related Links

Times and Time Zones

All times are in EDT time to prevent confusion due to time zone crossing. See the N524NK flight status page for this flight to view local times or setup timezone preferences in your user account.

Time Position Orientation Groundspeed Altitude Reporting Facility
EDT Latitude Longitude Course Direction KTS MPH feet Rate Location/Type
Sat 07:04:42 AM 41.8940 -83.4860 198° South 314 361 10,600  Level FlightAware ADS-B
Sat 07:05:27 AM 41.8370 -83.5110 198° South 314 361 10,600 2,149 Level FlightAware ADS-B
Sat 07:08:17 AM 41.5500 -83.6100 194° South 374 430 18,300 2,543 Climbing FlightAware ADS-B
Sat 07:08:57 AM 41.4800 -83.6310 193° South 381 438 19,500 1,725 Climbing FlightAware ADS-B
Sat 07:09:37 AM 41.4140 -83.6670 202° Southwest 396 456 20,600 1,624 Climbing FlightAware ADS-B
Sat 07:10:22 AM 41.3400 -83.7200 208° Southwest 404 465 21,800 1,694 Climbing FlightAware ADS-B
Sat 07:11:02 AM 41.2750 -83.7680 209° Southwest 406 467 23,000 1,765 Climbing FlightAware ADS-B
Sat 07:11:47 AM 41.2010 -83.8210 208° Southwest 403 464 24,300 1,624 Climbing FlightAware ADS-B
Sat 07:12:27 AM 41.1360 -83.8680 209° Southwest 406 467 25,300 1,200 Climbing FlightAware ADS-B
Sat 07:13:07 AM 41.0690 -83.9160 208° Southwest 419 482 25,900 988 Climbing FlightAware ADS-B
Sat 07:13:52 AM 40.9910 -83.9720 208° Southwest 426 490 26,700 1,059 Climbing FlightAware ADS-B
Sat 07:14:32 AM 40.9190 -84.0230 208° Southwest 432 497 27,400 1,059 Climbing FlightAware ADS-B
Sat 07:15:17 AM 40.8390 -84.0800 208° Southwest 439 505 28,200 1,059 Climbing FlightAware ADS-B
Sat 07:15:57 AM 40.7700 -84.1300 209° Southwest 441 507 28,900 1,050 Climbing FlightAware ADS-B
Sat 07:16:37 AM 40.6950 -84.1830 208° Southwest 444 511 29,600 1,059 Climbing FlightAware ADS-B
Sat 07:17:22 AM 40.6150 -84.2390 208° Southwest 443 510 30,400 1,200 Climbing FlightAware ADS-B
Sat 07:18:02 AM 40.5440 -84.2900 209° Southwest 439 505 31,300 1,125 Climbing FlightAware ADS-B
Sat 07:18:42 AM 40.4730 -84.3400 208° Southwest 439 505 31,900 1,059 Climbing FlightAware ADS-B
Sat 07:19:27 AM 40.3910 -84.3970 208° Southwest 435 501 32,800 1,050 Climbing FlightAware ADS-B
Sat 07:20:02 AM 40.3310 -84.4390 208° Southwest 436 502 33,300 918 Climbing FlightAware ADS-B
Sat 07:20:52 AM 40.2410 -84.5020 208° Southwest 434 499 34,100 867 Climbing FlightAware ADS-B
Sat 07:21:32 AM 40.1700 -84.5510 208° Southwest 434 499 34,600 918 Climbing FlightAware ADS-B
Sat 07:22:17 AM 40.0900 -84.6070 208° Southwest 426 490 35,400 776 Climbing FlightAware ADS-B
Sat 07:22:57 AM 40.0210 -84.6560 209° Southwest 430 495 35,700 450 Climbing FlightAware ADS-B
Sat 07:23:37 AM 39.9530 -84.7020 207° Southwest 430 495 36,000 225 Climbing FlightAware ADS-B
Sat 07:24:17 AM 39.8770 -84.7460 204° Southwest 427 491 36,000  Level FlightAware ADS-B
Sat 07:25:02 AM 39.8040 -84.7870 203° Southwest 430 495 36,000  Level FlightAware ADS-B
Sat 07:25:47 AM 39.7170 -84.8370 204° Southwest 427 491 36,000  Level FlightAware ADS-B
Sat 07:26:27 AM 39.6500 -84.8740 203° Southwest 427 491 36,000  Level FlightAware ADS-B
Sat 07:27:07 AM 39.5880 -84.9080 203° Southwest 427 491 36,000  Level FlightAware ADS-B
Sat 07:27:47 AM 39.5260 -84.9420 203° Southwest 427 491 36,000  Level FlightAware ADS-B
Sat 07:28:27 AM 39.4640 -84.9760 203° Southwest 427 491 36,000  Level FlightAware ADS-B
Sat 07:29:17 AM 39.3870 -85.0190 203° Southwest 427 491 36,000  Level FlightAware ADS-B
Sat 07:29:57 AM 39.3250 -85.0530 203° Southwest 427 491 36,000  Level FlightAware ADS-B
Sat 07:30:37 AM 39.2630 -85.0870 203° Southwest 427 491 36,000  Level FlightAware ADS-B
Sat 07:31:17 AM 39.2010 -85.1210 203° Southwest 427 491 36,000  Level FlightAware ADS-B
Sat 07:32:02 AM 39.0370 -85.2260 206° Southwest 421 484 36,000  Level FlightAware ADS-B
Sat 07:32:47 AM 38.9580 -85.2700 203° Southwest 419 482 36,000  Level FlightAware ADS-B
Sat 07:33:27 AM 38.8870 -85.3100 204° Southwest 418 481 36,000  Level FlightAware ADS-B
Sat 07:34:12 AM 38.8050 -85.3560 204° Southwest 417 480 36,000  Level FlightAware ADS-B
Sat 07:34:52 AM 38.7340 -85.3960 204° Southwest 417 480 36,000  Level FlightAware ADS-B
Sat 07:35:37 AM 38.6560 -85.4390 203° Southwest 418 481 36,000  Level FlightAware ADS-B
Sat 07:36:17 AM 38.5840 -85.4790 203° Southwest 417 480 36,000  Level FlightAware ADS-B
Sat 07:36:57 AM 38.5130 -85.5190 204° Southwest 418 481 36,000  Level FlightAware ADS-B
Sat 07:37:42 AM 38.4330 -85.5630 203° Southwest 417 480 36,000  Level FlightAware ADS-B
Sat 07:38:22 AM 38.3630 -85.6020 204° Southwest 418 481 36,000  Level FlightAware ADS-B
Sat 07:39:07 AM 38.2830 -85.6460 203° Southwest 419 482 36,000  Level FlightAware ADS-B
Sat 07:39:47 AM 38.2130 -85.6850 204° Southwest 418 481 36,000  Level FlightAware ADS-B
Sat 07:40:27 AM 38.1410 -85.7250 204° Southwest 418 481 36,000  Level FlightAware ADS-B
Sat 07:41:12 AM 38.0620 -85.7680 203° Southwest 417 480 36,000  Level FlightAware ADS-B
Sat 07:41:52 AM 37.9910 -85.8070 203° Southwest 416 479 36,000  Level FlightAware ADS-B
Sat 07:42:37 AM 37.9100 -85.8510 203° Southwest 413 475 36,000  Level FlightAware ADS-B
Sat 07:43:12 AM 37.8510 -85.8830 203° Southwest 411 473 36,000  Level FlightAware ADS-B
Sat 07:43:52 AM 37.7780 -85.9230 203° Southwest 410 472 36,000  Level FlightAware ADS-B
Sat 07:44:42 AM 37.6930 -85.9690 203° Southwest 407 468 36,000  Level FlightAware ADS-B
Sat 07:45:17 AM 37.6340 -86.0010 203° Southwest 406 467 36,000  Level FlightAware ADS-B
Sat 07:45:36 AM 37.5971 -86.0212 203° Southwest 407 468 36,000  Level FlightAware ADS-B
Sat 07:46:07 AM 37.5470 -86.0480 203° Southwest 407 468 36,000  Level FlightAware ADS-B
Sat 07:46:47 AM 37.4780 -86.0850 203° Southwest 409 471 36,000 -122 Level FlightAware ADS-B
Sat 07:46:56 AM 37.4586 -86.0959 204° Southwest 409 471 35,900  Descending FlightAware ADS-B
Sat 07:47:27 AM 37.4090 -86.1220 203° Southwest 412 474 36,000 79 Climbing FlightAware ADS-B
Sat 07:48:12 AM 37.3260 -86.1670 203° Southwest 413 475 36,000  Level FlightAware ADS-B
Sat 07:48:52 AM 37.2590 -86.2030 203° Southwest 415 478 36,000 75 Level FlightAware ADS-B
Sat 07:49:32 AM 37.1860 -86.2420 203° Southwest 415 478 36,100 67 Climbing FlightAware ADS-B
Sat 07:50:22 AM 37.1040 -86.2860 203° Southwest 414 476 36,100 -71 Level FlightAware ADS-B
Sat 07:50:57 AM 37.0342 -86.3230 203° Southwest 412 474 36,000 -92 Descending FlightAware ADS-B
Sat 07:51:27 AM 36.9815 -86.3512 203° Southwest 412 474 36,000  Level FlightAware ADS-B
Sat 07:51:58 AM 36.9271 -86.3802 203° Southwest 413 475 36,000  Level FlightAware ADS-B
Sat 07:52:29 AM 36.8726 -86.4093 203° Southwest 414 476 36,000  Level FlightAware ADS-B
Sat 07:53:00 AM 36.8186 -86.4374 203° Southwest 412 474 36,000  Level FlightAware ADS-B
Sat 07:53:30 AM 36.7657 -86.4651 203° Southwest 411 473 36,000  Level FlightAware ADS-B
Sat 07:54:00 AM 36.7123 -86.4935 203° Southwest 409 471 36,000  Level FlightAware ADS-B
Sat 07:54:30 AM 36.6599 -86.5210 203° Southwest 407 468 36,000  Level FlightAware ADS-B
Sat 07:55:01 AM 36.6078 -86.5486 203° Southwest 407 468 36,000 -97 Level FlightAware ADS-B
Sat 07:55:32 AM 36.5543 -86.5767 203° Southwest 408 470 35,900 74 Descending FlightAware ADS-B
Sat 07:56:22 AM 36.4700 -86.6200 202° Southwest 408 470 36,100 453 Climbing FlightAware ADS-B
Sat 07:56:25 AM 36.4614 -86.6252 206° Southwest 409 471 36,300 1,000 Climbing FlightAware ADS-B
Sat 07:56:58 AM 36.4035 -86.6559 203° Southwest 406 467 36,700 529 Climbing FlightAware ADS-B
Sat 07:57:33 AM 36.3427 -86.6875 203° Southwest 407 468 36,900 269 Climbing FlightAware ADS-B
Sat 07:58:05 AM 36.2872 -86.7163 203° Southwest 411 473 37,000 97 Climbing FlightAware ADS-B
Sat 07:58:35 AM 36.2341 -86.7440 203° Southwest 407 468 37,000  Level FlightAware ADS-B
Sat 07:59:07 AM 36.1798 -86.7721 203° Southwest 408 470 37,000  Level FlightAware ADS-B
Sat 07:59:38 AM 36.1249 -86.8005 203° Southwest 409 471 37,000  Level FlightAware ADS-B
Sat 08:00:08 AM 36.0712 -86.8283 203° Southwest 405 466 37,000  Level FlightAware ADS-B
Sat 08:00:39 AM 36.0194 -86.8550 203° Southwest 400 460 37,000  Level FlightAware ADS-B
Sat 08:01:09 AM 35.9684 -86.8814 203° Southwest 397 457 37,000  Level FlightAware ADS-B
Sat 08:01:39 AM 35.9173 -86.9078 203° Southwest 395 455 37,000 -94 Level FlightAware ADS-B
Sat 08:02:13 AM 35.8607 -86.9370 203° Southwest 397 457 36,900  Descending FlightAware ADS-B
Sat 08:02:47 AM 35.8019 -86.9673 203° Southwest 399 459 37,000 92 Climbing FlightAware ADS-B
Sat 08:03:18 AM 35.7502 -86.9940 203° Southwest 399 459 37,000  Level FlightAware ADS-B
Sat 08:03:49 AM 35.6971 -87.0217 203° Southwest 400 460 37,000  Level FlightAware ADS-B
Sat 08:04:23 AM 35.6388 -87.0513 202° Southwest 400 460 37,000  Level FlightAware ADS-B
Sat 08:05:27 AM 35.5320 -87.1060 203° Southwest 401 461 37,000  Level FlightAware ADS-B
Sat 08:06:07 AM 35.4640 -87.1400 202° Southwest 402 463 37,000  Level FlightAware ADS-B
Sat 08:06:47 AM 35.3950 -87.1750 202° Southwest 402 463 37,000  Level FlightAware ADS-B
Sat 08:07:42 AM 35.3010 -87.2230 203° Southwest 399 459 37,000  Level FlightAware ADS-B
Sat 08:08:27 AM 35.2340 -87.2560 202° Southwest 399 459 37,000  Level FlightAware ADS-B
Sat 08:09:07 AM 35.1760 -87.2850 202° Southwest 399 459 37,000  Level FlightAware ADS-B
Sat 08:09:47 AM 35.1180 -87.3140 202° Southwest 399 459 37,000  Level FlightAware ADS-B
Sat 08:10:27 AM 35.0590 -87.3420 201° Southwest 399 459 37,000  Level FlightAware ADS-B
Sat 08:11:17 AM 34.9870 -87.3780 202° Southwest 399 459 37,000  Level FlightAware ADS-B
Sat 08:11:57 AM 34.9280 -87.4070 202° Southwest 399 459 37,000  Level FlightAware ADS-B
Sat 08:12:37 AM 34.8700 -87.4360 202° Southwest 399 459 37,000  Level FlightAware ADS-B
Sat 08:13:17 AM 34.8120 -87.4640 202° Southwest 399 459 37,000  Level FlightAware ADS-B
Sat 08:13:57 AM 34.7540 -87.4930 202° Southwest 399 459 37,000  Level FlightAware ADS-B
Sat 08:14:47 AM 34.6810 -87.5290 202° Southwest 399 459 37,000  Level FlightAware ADS-B
Sat 08:15:27 AM 34.6230 -87.5570 202° Southwest 399 459 37,000  Level FlightAware ADS-B
Sat 08:16:07 AM 34.5650 -87.5860 202° Southwest 399 459 37,000  Level FlightAware ADS-B
Sat 08:16:47 AM 34.5060 -87.6140 201° Southwest 399 459 37,000  Level FlightAware ADS-B
Sat 08:17:27 AM 34.4480 -87.6430 202° Southwest 399 459 37,000  Level FlightAware ADS-B
Sat 08:18:44 AM 34.1608 -87.7917 202° Southwest 408 470 37,000  Level Memphis Center
Sat 08:19:44 AM 34.0533 -87.8425 201° Southwest 414 476 37,000  Level Memphis Center
Sat 08:21:44 AM 33.8486 -87.9436 202° Southwest 421 484 37,000  Level Memphis Center
Sat 08:22:44 AM 33.7267 -88.0069 203° Southwest 426 490 37,000  Level Memphis Center
Sat 08:23:44 AM 33.6172 -88.0597 202° Southwest 426 490 37,000  Level Memphis Center
Sat 08:24:00 AM 33.7386 -87.9777 202° Southwest  Level FlightAware Approximate
Sat 08:24:44 AM 33.5094 -88.1100 201° Southwest 426 490 37,000  Level Memphis Center
Sat 08:25:44 AM 33.4039 -88.1650 204° Southwest 426 490 37,000  Level Memphis Center
Sat 08:26:44 AM 33.3169 -88.2044 201° Southwest 426 490 37,000  Level Memphis Center
Sat 08:27:44 AM 33.2033 -88.2617 203° Southwest 415 478 37,000  Level Memphis Center
Sat 08:28:44 AM 33.0956 -88.3139 202° Southwest 415 478 37,000  Level Memphis Center
Sat 08:29:44 AM 32.9858 -88.3661 202° Southwest 421 484 37,000  Level Memphis Center
Sat 08:30:44 AM 32.8614 -88.4233 201° Southwest 437 503 37,000  Level Memphis Center
Sat 08:31:44 AM 32.7475 -88.4775 202° Southwest 437 503 37,000  Level Memphis Center
Sat 08:32:44 AM 32.6375 -88.5292 202° Southwest 437 503 37,000  Level Memphis Center
Sat 08:33:44 AM 32.5256 -88.5833 202° Southwest 437 503 37,000  Level Memphis Center
Sat 08:34:44 AM 32.4136 -88.6347 201° Southwest 432 497 37,000  Level Memphis Center
Sat 08:35:44 AM 32.3183 -88.6808 202° Southwest 432 497 37,000  Level Memphis Center
Sat 08:36:44 AM 32.1958 -88.7372 201° Southwest 432 497 37,000  Level Memphis Center
Sat 08:37:44 AM 32.0878 -88.7856 201° Southwest 432 497 37,000  Level Memphis Center
Sat 08:39:39 AM 31.8925 -88.8783 202° Southwest 419 482 37,000  Level Houston Center
Sat 08:40:40 AM 31.7842 -88.9283 201° Southwest 420 483 37,000 49 Level Houston Center
Sat 08:41:41 AM 31.6756 -88.9786 202° Southwest 421 484 37,100 49 Climbing Houston Center
Sat 08:42:42 AM 31.5664 -89.0286 201° Southwest 422 486 37,100 -49 Level Houston Center
Sat 08:43:43 AM 31.4428 -89.0847 201° Southwest 406 467 37,000 -49 Descending Houston Center
Sat 08:44:45 AM 31.3422 -89.1300 201° Southwest 393 452 37,000  Level Houston Center
Sat 08:45:46 AM 31.2406 -89.1469 188° South 418 481 37,000  Level Houston Center
Sat 08:46:47 AM 31.1256 -89.1694 190° South 415 478 37,000  Level Houston Center
Sat 08:47:48 AM 31.0128 -89.1922 190° South 413 475 37,000 -49 Level Houston Center
Sat 08:48:49 AM 30.8753 -89.2183 189° South 416 479 36,900  Descending Houston Center
Sat 08:49:51 AM 30.7575 -89.2419 190° South 426 490 37,000  Climbing Houston Center
Sat 08:50:52 AM 30.6403 -89.2656 190° South 424 488 36,900  Descending Houston Center
Sat 08:56:22 AM 29.9640 -89.3970 190° South 448 516 37,000 16 Climbing FlightAware ADS-B
Sat 08:57:12 AM 29.8580 -89.4180 190° South 447 514 37,000  Level FlightAware ADS-B
Sat 08:59:02 AM 29.6510 -89.4570 189° South 442 509 37,000  Level FlightAware ADS-B
Sat 08:59:42 AM 29.5700 -89.4720 189° South 441 507 37,000 -75 Level FlightAware ADS-B
Sat 09:00:22 AM 29.4850 -89.4890 190° South 440 506 36,900 -71 Descending FlightAware ADS-B
Sat 09:01:07 AM 29.4010 -89.5040 189° South 440 506 36,900  Level FlightAware ADS-B
Sat 09:01:47 AM 29.3330 -89.5170 189° South 440 506 36,900  Level FlightAware ADS-B
Sat 09:02:27 AM 29.2650 -89.5290 189° South 440 506 36,900  Level FlightAware ADS-B
Sat 09:03:17 AM 29.1790 -89.5450 189° South 440 506 36,900  Level FlightAware ADS-B
Sat 09:03:57 AM 29.1110 -89.5570 189° South 440 506 36,900  Level FlightAware ADS-B
Sat 09:04:37 AM 29.0420 -89.5690 189° South 440 506 36,900  Level FlightAware ADS-B
Sat 09:05:17 AM 28.9740 -89.5820 189° South 440 506 36,900  Level FlightAware ADS-B
Sat 09:05:57 AM 28.9060 -89.5940 189° South 440 506 36,900  Level FlightAware ADS-B
Sat 09:06:47 AM 28.8200 -89.6100 189° South 440 506 36,900  Level FlightAware ADS-B
Sat 09:07:27 AM 28.7520 -89.6220 189° South 440 506 36,900  Level FlightAware ADS-B
Sat 09:08:07 AM 28.6830 -89.6340 189° South 440 506 36,900  Level FlightAware ADS-B
Sat 09:08:47 AM 28.6150 -89.6470 190° South 440 506 36,900  Level FlightAware ADS-B
Sat 09:09:27 AM 28.5470 -89.6590 189° South 440 506 36,900  Level FlightAware ADS-B
Sat 09:10:17 AM 28.4610 -89.6740 189° South 440 506 36,900 55 Level FlightAware ADS-B
Sat 09:11:16 AM 28.1508 -89.6681 189° South 481 554 37,000 50 Climbing Houston Center
Sat 09:12:17 AM 28.0206 -89.6161 161° South 494 568 37,000  Level Houston Center
Sat 09:13:19 AM 27.8642 -89.5486 159° South 499 574 37,000  Level Houston Center
Sat 09:14:20 AM 27.7347 -89.4950 160° South 496 571 37,000 -49 Level Houston Center
Sat 09:15:21 AM 27.6061 -89.4408 160° South 495 570 36,900 -49 Descending Houston Center
Sat 09:16:22 AM 27.4778 -89.3906 161° South 491 565 36,900  Level Houston Center
Sat 09:17:23 AM 27.3500 -89.3414 161° South 488 562 36,900  Level Houston Center
Sat 09:18:25 AM 27.2214 -89.2908 161° South 488 562 36,900 49 Level Houston Center
Sat 09:19:26 AM 27.0928 -89.2394 160° South 489 563 37,000 98 Climbing Houston Center
Sat 09:21:00 AM 26.9231 -89.1686 160° South  Level FlightAware Approximate
Sat 09:28:00 AM 26.1640 -88.8567 160° South  Level FlightAware Approximate
Sat 09:29:00 AM 26.0554 -88.8127 160° South  Level FlightAware Approximate
Sat 09:30:00 AM 25.9468 -88.7689 160° South  Level FlightAware Approximate
Sat 09:31:00 AM 25.8377 -88.7266 161° South  Level FlightAware Approximate
Sat 09:32:00 AM 25.7282 -88.6854 161° South  Level FlightAware Approximate
Sat 09:33:00 AM 25.6188 -88.6444 161° South  Level FlightAware Approximate
Sat 09:34:00 AM 25.5093 -88.6035 161° South  Level FlightAware Approximate
Sat 09:35:00 AM 25.4006 -88.5599 160° South  Level FlightAware Approximate
Sat 09:36:00 AM 25.2920 -88.5162 160° South  Level FlightAware Approximate
Sat 09:37:00 AM 25.1834 -88.4726 160° South  Level FlightAware Approximate
Sat 09:38:00 AM 25.0748 -88.4291 160° South  Level FlightAware Approximate
Sat 09:39:00 AM 24.9662 -88.3856 160° South  Level FlightAware Approximate
Sat 09:40:00 AM 24.8576 -88.3422 160° South  Level FlightAware Approximate
Sat 09:41:00 AM 24.7489 -88.2989 160° South  Level FlightAware Approximate
Sat 09:42:00 AM 24.6403 -88.2557 160° South  Level FlightAware Approximate
Sat 09:43:00 AM 24.5316 -88.2125 160° South  Level FlightAware Approximate
Sat 09:44:00 AM 24.4231 -88.1687 160° South  Level FlightAware Approximate
Sat 09:45:00 AM 24.3148 -88.1247 160° South  Level FlightAware Approximate
Sat 09:46:00 AM 24.2064 -88.0808 160° South  Level FlightAware Approximate
Sat 09:47:00 AM 24.0980 -88.0369 160° South  Level FlightAware Approximate
Sat 09:48:00 AM 23.9896 -87.9931 160° South  Level FlightAware Approximate
Sat 09:49:00 AM 23.8812 -87.9494 160° South  Level FlightAware Approximate
Sat 09:50:00 AM 23.7726 -87.9062 161° South  Level FlightAware Approximate
Sat 09:51:00 AM 23.6635 -87.8646 161° South  Level FlightAware Approximate
Sat 09:52:00 AM 23.5544 -87.8230 161° South  Level FlightAware Approximate
Sat 09:53:00 AM 23.4453 -87.7818 163° South  Level FlightAware Approximate
Sat 09:54:00 AM 23.3348 -87.7449 163° South  Level FlightAware Approximate
Sat 09:55:00 AM 23.2246 -87.7071 161° South  Level FlightAware Approximate
Sat 09:56:00 AM 23.1154 -87.6661 161° South  Level FlightAware Approximate
Sat 09:57:00 AM 23.0062 -87.6251 161° South  Level FlightAware Approximate
Sat 09:58:00 AM 22.8969 -87.5842 161° South  Level FlightAware Approximate
Sat 09:59:00 AM 22.7902 -87.5367 155° Southeast  Level FlightAware Approximate
Sat 10:00:00 AM 22.6824 -87.4917 159° South  Level FlightAware Approximate
Sat 10:01:00 AM 22.5744 -87.4472 159° South  Level FlightAware Approximate
Sat 10:02:00 AM 22.4660 -87.4039 161° South  Level FlightAware Approximate
Sat 10:03:00 AM 22.3568 -87.3629 161° South  Level FlightAware Approximate
Sat 10:04:00 AM 22.2477 -87.3220 161° South  Level FlightAware Approximate
Sat 10:05:00 AM 22.1386 -87.2806 161° South  Level FlightAware Approximate
Sat 10:06:00 AM 22.0296 -87.2392 161° South  Level FlightAware Approximate
Sat 10:07:00 AM 21.9207 -87.1979 161° South  Level FlightAware Approximate
Sat 10:08:00 AM 21.8116 -87.1566 161° South  Level FlightAware Approximate
Sat 10:09:00 AM 21.7020 -87.1173 163° South  Level FlightAware Approximate
Sat 10:10:00 AM 21.5936 -87.0769 137° Southeast  Level FlightAware Approximate
Sat 10:11:00 AM 21.4864 -87.0343 163° South  Level FlightAware Approximate
Sat 10:12:00 AM 21.3763 -86.9968 157° South  Level FlightAware Approximate
Sat 10:13:00 AM 21.2695 -86.9494 157° South  Level FlightAware Approximate
Sat 10:14:00 AM 21.1634 -86.9090 148° Southeast  Level FlightAware Approximate
Sat 10:15:00 AM 21.0540 -86.8749 148° Southeast  Level FlightAware Approximate
Sat 10:16:00 AM 21.0365 -86.8771 270° West  Level Estimated
Sat 10:17:00 AM 21.0365 -86.8771 270° West  Level Estimated
Sat 10:18:00 AM 21.0365 -86.8771 270° West  Level Estimated
Sat 10:19:00 AM 21.0365 -86.8771 270° West  Level Estimated
Sat 10:20:00 AM 21.0365 -86.8771 270° West  Level Estimated
Sat 10:21:00 AM 21.0365 -86.8771 270° West  Level Estimated
Sat 10:22:00 AM 21.0365 -86.8771 270° West  Level Estimated
Sat 10:23:00 AM 21.0365 -86.8771 270° West  Level Estimated
Sat 10:24:00 AM 21.0365 -86.8771 270° West  Level Estimated
Sat 10:25:00 AM 21.0365 -86.8771 270° West  Level Estimated
Sat 10:26:00 AM 21.0365 -86.8771 270° West  Level Estimated
Sat 10:27:00 AM 21.0365 -86.8771 270° West  Level Estimated
Sat 10:28:00 AM 21.0365 -86.8771 270° West  Level Estimated
Sat 10:29:00 AM 21.0365 -86.8771 270° West  Level Estimated
Sat 10:30:00 AM 21.0365 -86.8771 270° West  Level Estimated
Sat 10:31:00 AM 21.0365 -86.8771 270° West  Level Estimated
Sat 10:32:00 AM 21.0365 -86.8771 270° West  Level Estimated

Login

Don't have an account? Register now (free) for customized features, flight alerts, and more!